sensor_id;sensor_type;location;lat;lon;timestamp;pressure;altitude;pressure_sealevel;temperature
70668;BMP280;58242;51.250;-1.118;2022-12-18T00:00:05;100838.44;;;6.47
70668;BMP280;58242;51.250;-1.118;2022-12-18T00:02:30;100845.09;;;6.45
70668;BMP280;58242;51.250;-1.118;2022-12-18T00:04:56;100839.53;;;6.41
70668;BMP280;58242;51.250;-1.118;2022-12-18T00:07:21;100832.94;;;6.39
70668;BMP280;58242;51.250;-1.118;2022-12-18T00:09:46;100830.84;;;6.36
70668;BMP280;58242;51.250;-1.118;2022-12-18T00:12:12;100815.47;;;6.33
70668;BMP280;58242;51.250;-1.118;2022-12-18T00:14:37;100812.28;;;6.31
70668;BMP280;58242;51.250;-1.118;2022-12-18T00:17:02;100806.75;;;6.28
70668;BMP280;58242;51.250;-1.118;2022-12-18T00:19:28;100804.34;;;6.26
70668;BMP280;58242;51.250;-1.118;2022-12-18T00:21:53;100798.53;;;6.24
70668;BMP280;58242;51.250;-1.118;2022-12-18T00:24:18;100796.16;;;6.23
70668;BMP280;58242;51.250;-1.118;2022-12-18T00:26:43;100794.88;;;6.20
70668;BMP280;58242;51.250;-1.118;2022-12-18T00:29:13;100790.63;;;6.19
70668;BMP280;58242;51.250;-1.118;2022-12-18T00:31:40;100784.00;;;6.17
70668;BMP280;58242;51.250;-1.118;2022-12-18T00:34:05;100786.94;;;6.15
70668;BMP280;58242;51.250;-1.118;2022-12-18T00:36:33;100789.88;;;6.14
70668;BMP280;58242;51.250;-1.118;2022-12-18T00:39:00;100792.00;;;6.12
70668;BMP280;58242;51.250;-1.118;2022-12-18T00:41:26;100784.31;;;6.11
70668;BMP280;58242;51.250;-1.118;2022-12-18T00:44:13;100777.44;;;6.10
70668;BMP280;58242;51.250;-1.118;2022-12-18T00:46:39;100768.69;;;6.09
70668;BMP280;58242;51.250;-1.118;2022-12-18T00:49:05;100765.22;;;6.09
70668;BMP280;58242;51.250;-1.118;2022-12-18T00:51:31;100754.06;;;6.07
70668;BMP280;58242;51.250;-1.118;2022-12-18T00:53:56;100746.13;;;6.07
70668;BMP280;58242;51.250;-1.118;2022-12-18T00:56:23;100758.63;;;6.06
70668;BMP280;58242;51.250;-1.118;2022-12-18T00:58:49;100750.66;;;6.06
70668;BMP280;58242;51.250;-1.118;2022-12-18T01:01:14;100744.56;;;6.06
70668;BMP280;58242;51.250;-1.118;2022-12-18T01:03:40;100745.63;;;6.05
70668;BMP280;58242;51.250;-1.118;2022-12-18T01:06:07;100735.00;;;6.05
70668;BMP280;58242;51.250;-1.118;2022-12-18T01:08:32;100731.56;;;6.04
70668;BMP280;58242;51.250;-1.118;2022-12-18T01:10:58;100730.75;;;6.04
70668;BMP280;58242;51.250;-1.118;2022-12-18T01:13:23;100736.84;;;6.04
70668;BMP280;58242;51.250;-1.118;2022-12-18T01:15:49;100737.66;;;6.05
70668;BMP280;58242;51.250;-1.118;2022-12-18T01:18:15;100731.56;;;6.04
70668;BMP280;58242;51.250;-1.118;2022-12-18T01:20:40;100726.25;;;6.04
70668;BMP280;58242;51.250;-1.118;2022-12-18T01:23:05;100720.13;;;6.04
70668;BMP280;58242;51.250;-1.118;2022-12-18T01:25:31;100720.94;;;6.04
70668;BMP280;58242;51.250;-1.118;2022-12-18T01:27:56;100729.69;;;6.05
70668;BMP280;58242;51.250;-1.118;2022-12-18T01:30:22;100728.09;;;6.04
70668;BMP280;58242;51.250;-1.118;2022-12-18T01:32:47;100725.44;;;6.04
70668;BMP280;58242;51.250;-1.118;2022-12-18T01:35:12;100739.50;;;6.04
70668;BMP280;58242;51.250;-1.118;2022-12-18T01:37:38;100727.03;;;6.05
70668;BMP280;58242;51.250;-1.118;2022-12-18T01:40:03;100733.16;;;6.05
70668;BMP280;58242;51.250;-1.118;2022-12-18T01:42:29;100735.81;;;6.05
70668;BMP280;58242;51.250;-1.118;2022-12-18T01:47:35;100737.38;;;6.06
70668;BMP280;58242;51.250;-1.118;2022-12-18T01:50:20;100736.59;;;6.06
70668;BMP280;58242;51.250;-1.118;2022-12-18T01:53:10;100735.81;;;6.05
70668;BMP280;58242;51.250;-1.118;2022-12-18T01:55:41;100736.28;;;6.07
70668;BMP280;58242;51.250;-1.118;2022-12-18T01:58:08;100741.59;;;6.07
70668;BMP280;58242;51.250;-1.118;2022-12-18T02:00:33;100754.34;;;6.10
70668;BMP280;58242;51.250;-1.118;2022-12-18T02:02:59;100751.13;;;6.13
70668;BMP280;58242;51.250;-1.118;2022-12-18T02:14:18;100745.50;;;6.19
70668;BMP280;58242;51.250;-1.118;2022-12-18T02:16:52;100746.50;;;6.23
70668;BMP280;58242;51.250;-1.118;2022-12-18T02:19:54;100748.09;;;6.24
70668;BMP280;58242;51.250;-1.118;2022-12-18T02:27:45;100754.44;;;6.28
70668;BMP280;58242;51.250;-1.118;2022-12-18T02:30:11;100751.31;;;6.21
70668;BMP280;58242;51.250;-1.118;2022-12-18T02:32:43;100753.41;;;6.24
70668;BMP280;58242;51.250;-1.118;2022-12-18T02:35:16;100757.66;;;6.25
70668;BMP280;58242;51.250;-1.118;2022-12-18T02:37:43;100744.38;;;6.25
70668;BMP280;58242;51.250;-1.118;2022-12-18T02:40:11;100741.72;;;6.25
70668;BMP280;58242;51.250;-1.118;2022-12-18T02:42:37;100733.78;;;6.25
70668;BMP280;58242;51.250;-1.118;2022-12-18T02:45:03;100725.81;;;6.25
70668;BMP280;58242;51.250;-1.118;2022-12-18T02:47:31;100718.09;;;6.24
70668;BMP280;58242;51.250;-1.118;2022-12-18T02:50:00;100729.78;;;6.23
70668;BMP280;58242;51.250;-1.118;2022-12-18T02:52:49;100713.06;;;6.22
70668;BMP280;58242;51.250;-1.118;2022-12-18T02:57:47;100706.72;;;6.18
70668;BMP280;58242;51.250;-1.118;2022-12-18T03:00:27;100697.69;;;6.19
70668;BMP280;58242;51.250;-1.118;2022-12-18T03:03:09;100705.16;;;6.17
70668;BMP280;58242;51.250;-1.118;2022-12-18T03:05:39;100707.81;;;6.17
70668;BMP280;58242;51.250;-1.118;2022-12-18T03:08:10;100699.06;;;6.17
70668;BMP280;58242;51.250;-1.118;2022-12-18T03:10:45;100705.16;;;6.17
70668;BMP280;58242;51.250;-1.118;2022-12-18T03:13:26;100705.16;;;6.17
70668;BMP280;58242;51.250;-1.118;2022-12-18T03:15:55;100705.16;;;6.17
70668;BMP280;58242;51.250;-1.118;2022-12-18T03:18:36;100684.72;;;6.18
70668;BMP280;58242;51.250;-1.118;2022-12-18T03:21:05;100686.03;;;6.20
70668;BMP280;58242;51.250;-1.118;2022-12-18T03:23:35;100692.91;;;6.21
70668;BMP280;58242;51.250;-1.118;2022-12-18T03:26:05;100697.66;;;6.24
70668;BMP280;58242;51.250;-1.118;2022-12-18T03:28:34;100698.94;;;6.27
70668;BMP280;58242;51.250;-1.118;2022-12-18T03:31:03;100686.47;;;6.27
70668;BMP280;58242;51.250;-1.118;2022-12-18T03:33:34;100685.91;;;6.30
70668;BMP280;58242;51.250;-1.118;2022-12-18T03:36:01;100687.22;;;6.32
70668;BMP280;58242;51.250;-1.118;2022-12-18T03:38:27;100696.22;;;6.36
70668;BMP280;58242;51.250;-1.118;2022-12-18T03:41:00;100695.88;;;6.43
70668;BMP280;58242;51.250;-1.118;2022-12-18T03:46:08;100686.22;;;6.51
70668;BMP280;58242;51.250;-1.118;2022-12-18T03:48:43;100683.78;;;6.55
70668;BMP280;58242;51.250;-1.118;2022-12-18T03:51:49;100674.47;;;6.57
70668;BMP280;58242;51.250;-1.118;2022-12-18T03:54:16;100680.78;;;6.61
70668;BMP280;58242;51.250;-1.118;2022-12-18T03:56:46;100680.22;;;6.64
70668;BMP280;58242;51.250;-1.118;2022-12-18T03:59:13;100675.13;;;6.67
70668;BMP280;58242;51.250;-1.118;2022-12-18T04:01:47;100679.09;;;6.70
70668;BMP280;58242;51.250;-1.118;2022-12-18T04:04:15;100674.00;;;6.73
70668;BMP280;58242;51.250;-1.118;2022-12-18T04:06:42;100665.47;;;6.76
70668;BMP280;58242;51.250;-1.118;2022-12-18T04:09:08;100657.22;;;6.78
70668;BMP280;58242;51.250;-1.118;2022-12-18T04:11:34;100651.91;;;6.78
70668;BMP280;58242;51.250;-1.118;2022-12-18T04:13:59;100640.97;;;6.79
70668;BMP280;58242;51.250;-1.118;2022-12-18T04:16:26;100648.66;;;6.81
70668;BMP280;58242;51.250;-1.118;2022-12-18T04:18:52;100652.59;;;6.83
70668;BMP280;58242;51.250;-1.118;2022-12-18T04:21:17;100645.16;;;6.85
70668;BMP280;58242;51.250;-1.118;2022-12-18T04:23:43;100635.00;;;6.87
70668;BMP280;58242;51.250;-1.118;2022-12-18T04:26:08;100637.41;;;6.88
70668;BMP280;58242;51.250;-1.118;2022-12-18T04:28:33;100634.44;;;6.90
70668;BMP280;58242;51.250;-1.118;2022-12-18T04:30:59;100629.66;;;6.92
70668;BMP280;58242;51.250;-1.118;2022-12-18T04:33:24;100621.41;;;6.93
70668;BMP280;58242;51.250;-1.118;2022-12-18T04:35:49;100608.59;;;6.95
70668;BMP280;58242;51.250;-1.118;2022-12-18T04:38:15;100602.69;;;6.98
70668;BMP280;58242;51.250;-1.118;2022-12-18T04:40:40;100604.00;;;7.00
70668;BMP280;58242;51.250;-1.118;2022-12-18T04:43:06;100586.69;;;7.03
70668;BMP280;58242;51.250;-1.118;2022-12-18T04:45:32;100584.81;;;7.03
70668;BMP280;58242;51.250;-1.118;2022-12-18T04:47:58;100578.44;;;7.04
70668;BMP280;58242;51.250;-1.118;2022-12-18T04:50:23;100571.53;;;7.03
70668;BMP280;58242;51.250;-1.118;2022-12-18T04:52:49;100568.88;;;7.03
70668;BMP280;58242;51.250;-1.118;2022-12-18T04:55:14;100561.97;;;7.02
70668;BMP280;58242;51.250;-1.118;2022-12-18T04:57:40;100557.72;;;7.01
70668;BMP280;58242;51.250;-1.118;2022-12-18T05:00:07;100563.34;;;7.00
70668;BMP280;58242;51.250;-1.118;2022-12-18T05:02:33;100568.66;;;7.00
70668;BMP280;58242;51.250;-1.118;2022-12-18T05:04:58;100558.81;;;7.00
70668;BMP280;58242;51.250;-1.118;2022-12-18T05:07:24;100548.19;;;7.00
70668;BMP280;58242;51.250;-1.118;2022-12-18T05:09:49;100540.50;;;6.99
70668;BMP280;58242;51.250;-1.118;2022-12-18T05:12:14;100539.44;;;7.00
70668;BMP280;58242;51.250;-1.118;2022-12-18T05:14:40;100537.25;;;7.02
70668;BMP280;58242;51.250;-1.118;2022-12-18T05:17:05;100535.38;;;7.02
70668;BMP280;58242;51.250;-1.118;2022-12-18T05:19:30;100524.47;;;7.04
70668;BMP280;58242;51.250;-1.118;2022-12-18T05:21:56;100535.91;;;7.04
70668;BMP280;58242;51.250;-1.118;2022-12-18T05:24:22;100545.16;;;7.07
70668;BMP280;58242;51.250;-1.118;2022-12-18T05:26:48;100550.47;;;7.07
70668;BMP280;58242;51.250;-1.118;2022-12-18T05:29:13;100541.72;;;7.06
70668;BMP280;58242;51.250;-1.118;2022-12-18T05:31:38;100535.81;;;7.09
70668;BMP280;58242;51.250;-1.118;2022-12-18T05:34:04;100527.84;;;7.09
70668;BMP280;58242;51.250;-1.118;2022-12-18T05:36:30;100524.91;;;7.11
70668;BMP280;58242;51.250;-1.118;2022-12-18T05:38:55;100520.38;;;7.11
70668;BMP280;58242;51.250;-1.118;2022-12-18T05:41:20;100516.66;;;7.12
70668;BMP280;58242;51.250;-1.118;2022-12-18T05:43:46;100513.69;;;7.14
70668;BMP280;58242;51.250;-1.118;2022-12-18T05:46:13;100510.44;;;7.17
70668;BMP280;58242;51.250;-1.118;2022-12-18T05:48:39;100507.22;;;7.19
70668;BMP280;58242;51.250;-1.118;2022-12-18T05:51:07;100502.38;;;7.21
70668;BMP280;58242;51.250;-1.118;2022-12-18T05:53:34;100488.81;;;7.23
70668;BMP280;58242;51.250;-1.118;2022-12-18T05:56:01;100476.78;;;7.25
70668;BMP280;58242;51.250;-1.118;2022-12-18T05:58:27;100466.16;;;7.25
70668;BMP280;58242;51.250;-1.118;2022-12-18T06:00:52;100457.91;;;7.27
70668;BMP280;58242;51.250;-1.118;2022-12-18T06:03:18;100454.44;;;7.26
70668;BMP280;58242;51.250;-1.118;2022-12-18T06:05:44;100452.25;;;7.28
70668;BMP280;58242;51.250;-1.118;2022-12-18T06:08:11;100452.25;;;7.28
70668;BMP280;58242;51.250;-1.118;2022-12-18T06:10:36;100454.13;;;7.28
70668;BMP280;58242;51.250;-1.118;2022-12-18T06:13:02;100450.13;;;7.30
70668;BMP280;58242;51.250;-1.118;2022-12-18T06:15:28;100444.81;;;7.30
70668;BMP280;58242;51.250;-1.118;2022-12-18T06:17:53;100442.94;;;7.31
70668;BMP280;58242;51.250;-1.118;2022-12-18T06:20:19;100450.91;;;7.31
70668;BMP280;58242;51.250;-1.118;2022-12-18T06:22:45;100448.44;;;7.34
70668;BMP280;58242;51.250;-1.118;2022-12-18T06:25:10;100443.94;;;7.34
70668;BMP280;58242;51.250;-1.118;2022-12-18T06:27:36;100436.44;;;7.36
70668;BMP280;58242;51.250;-1.118;2022-12-18T06:30:02;100436.63;;;7.40
70668;BMP280;58242;51.250;-1.118;2022-12-18T06:32:27;100427.28;;;7.42
70668;BMP280;58242;51.250;-1.118;2022-12-18T06:34:53;100428.28;;;7.46
70668;BMP280;58242;51.250;-1.118;2022-12-18T06:37:20;100433.00;;;7.49
70668;BMP280;58242;51.250;-1.118;2022-12-18T06:39:45;100427.88;;;7.52
70668;BMP280;58242;51.250;-1.118;2022-12-18T06:42:11;100424.63;;;7.55
70668;BMP280;58242;51.250;-1.118;2022-12-18T06:44:36;100418.72;;;7.58
70668;BMP280;58242;51.250;-1.118;2022-12-18T06:47:02;100400.09;;;7.58
70668;BMP280;58242;51.250;-1.118;2022-12-18T06:49:27;100405.91;;;7.60
70668;BMP280;58242;51.250;-1.118;2022-12-18T06:51:53;100398.13;;;7.64
70668;BMP280;58242;51.250;-1.118;2022-12-18T06:54:18;100411.13;;;7.65
70668;BMP280;58242;51.250;-1.118;2022-12-18T06:56:45;100414.75;;;7.69
70668;BMP280;58242;51.250;-1.118;2022-12-18T06:59:12;100414.19;;;7.72
70668;BMP280;58242;51.250;-1.118;2022-12-18T07:01:38;100417.34;;;7.74
70668;BMP280;58242;51.250;-1.118;2022-12-18T07:04:03;100409.84;;;7.76
70668;BMP280;58242;51.250;-1.118;2022-12-18T07:06:28;100408.19;;;7.80
70668;BMP280;58242;51.250;-1.118;2022-12-18T07:08:54;100416.34;;;7.83
70668;BMP280;58242;51.250;-1.118;2022-12-18T07:11:20;100414.66;;;7.87
70668;BMP280;58242;51.250;-1.118;2022-12-18T07:13:46;100402.63;;;7.89
70668;BMP280;58242;51.250;-1.118;2022-12-18T07:18:38;100405.91;;;8.00
70668;BMP280;58242;51.250;-1.118;2022-12-18T07:21:08;100394.69;;;8.03
70668;BMP280;58242;51.250;-1.118;2022-12-18T07:23:34;100389.53;;;8.06
70668;BMP280;58242;51.250;-1.118;2022-12-18T07:26:04;100390.50;;;8.10
70668;BMP280;58242;51.250;-1.118;2022-12-18T07:28:31;100388.03;;;8.13
70668;BMP280;58242;51.250;-1.118;2022-12-18T07:30:56;100384.78;;;8.16
70668;BMP280;58242;51.250;-1.118;2022-12-18T07:33:22;100378.03;;;8.19
70668;BMP280;58242;51.250;-1.118;2022-12-18T07:35:47;100379.53;;;8.24
70668;BMP280;58242;51.250;-1.118;2022-12-18T07:38:12;100383.16;;;8.28
70668;BMP280;58242;51.250;-1.118;2022-12-18T07:40:38;100376.44;;;8.31
70668;BMP280;58242;51.250;-1.118;2022-12-18T07:43:03;100375.81;;;8.34
70668;BMP280;58242;51.250;-1.118;2022-12-18T07:45:29;100360.81;;;8.37
70668;BMP280;58242;51.250;-1.118;2022-12-18T07:47:55;100342.66;;;8.39
70668;BMP280;58242;51.250;-1.118;2022-12-18T07:50:20;100350.34;;;8.41
70668;BMP280;58242;51.250;-1.118;2022-12-18T07:52:45;100355.09;;;8.44
70668;BMP280;58242;51.250;-1.118;2022-12-18T07:55:11;100357.13;;;8.47
70668;BMP280;58242;51.250;-1.118;2022-12-18T07:57:37;100357.31;;;8.50
70668;BMP280;58242;51.250;-1.118;2022-12-18T08:00:02;100373.00;;;8.52
70668;BMP280;58242;51.250;-1.118;2022-12-18T08:02:30;100384.94;;;8.54
70668;BMP280;58242;51.250;-1.118;2022-12-18T08:04:56;100384.63;;;8.55
70668;BMP280;58242;51.250;-1.118;2022-12-18T08:07:21;100393.09;;;8.57
70668;BMP280;58242;51.250;-1.118;2022-12-18T08:09:46;100390.91;;;8.59
70668;BMP280;58242;51.250;-1.118;2022-12-18T08:12:11;100387.66;;;8.62
70668;BMP280;58242;51.250;-1.118;2022-12-18T08:14:37;100387.34;;;8.64
70668;BMP280;58242;51.250;-1.118;2022-12-18T08:17:02;100396.63;;;8.66
70668;BMP280;58242;51.250;-1.118;2022-12-18T08:19:27;100392.09;;;8.67
70668;BMP280;58242;51.250;-1.118;2022-12-18T08:21:52;100392.84;;;8.67
70668;BMP280;58242;51.250;-1.118;2022-12-18T08:24:18;100383.47;;;8.70
70668;BMP280;58242;51.250;-1.118;2022-12-18T08:26:43;100385.81;;;8.71
70668;BMP280;58242;51.250;-1.118;2022-12-18T08:29:09;100383.66;;;8.73
70668;BMP280;58242;51.250;-1.118;2022-12-18T08:31:35;100389.00;;;8.73
70668;BMP280;58242;51.250;-1.118;2022-12-18T08:34:00;100394.00;;;8.74
70668;BMP280;58242;51.250;-1.118;2022-12-18T08:36:26;100404.38;;;8.76
70668;BMP280;58242;51.250;-1.118;2022-12-18T08:38:52;100401.09;;;8.79
70668;BMP280;58242;51.250;-1.118;2022-12-18T08:41:18;100402.66;;;8.80
70668;BMP280;58242;51.250;-1.118;2022-12-18T08:43:43;100405.84;;;8.82
70668;BMP280;58242;51.250;-1.118;2022-12-18T08:46:35;100399.41;;;8.83
70668;BMP280;58242;51.250;-1.118;2022-12-18T08:49:01;100393.47;;;8.86
70668;BMP280;58242;51.250;-1.118;2022-12-18T08:51:26;100387.53;;;8.88
70668;BMP280;58242;51.250;-1.118;2022-12-18T08:53:52;100382.66;;;8.90
70668;BMP280;58242;51.250;-1.118;2022-12-18T08:56:17;100384.25;;;8.91
70668;BMP280;58242;51.250;-1.118;2022-12-18T08:58:42;100397.28;;;8.93
70668;BMP280;58242;51.250;-1.118;2022-12-18T09:01:09;100398.84;;;8.94
70668;BMP280;58242;51.250;-1.118;2022-12-18T09:03:35;100395.09;;;8.95
70668;BMP280;58242;51.250;-1.118;2022-12-18T09:06:01;100402.78;;;8.96
70668;BMP280;58242;51.250;-1.118;2022-12-18T09:08:27;100406.44;;;9.00
70668;BMP280;58242;51.250;-1.118;2022-12-18T09:10:53;100408.16;;;9.05
70668;BMP280;58242;51.250;-1.118;2022-12-18T09:13:18;100416.34;;;9.08
70668;BMP280;58242;51.250;-1.118;2022-12-18T09:15:46;100418.09;;;9.12
70668;BMP280;58242;51.250;-1.118;2022-12-18T09:18:13;100406.03;;;9.15
70668;BMP280;58242;51.250;-1.118;2022-12-18T09:20:39;100398.50;;;9.17
70668;BMP280;58242;51.250;-1.118;2022-12-18T09:23:06;100384.88;;;9.18
70668;BMP280;58242;51.250;-1.118;2022-12-18T09:25:32;100384.25;;;9.21
70668;BMP280;58242;51.250;-1.118;2022-12-18T09:28:02;100372.19;;;9.23
70668;BMP280;58242;51.250;-1.118;2022-12-18T09:30:28;100373.75;;;9.24
70668;BMP280;58242;51.250;-1.118;2022-12-18T09:32:54;100372.97;;;9.24
70668;BMP280;58242;51.250;-1.118;2022-12-18T09:35:20;100370.63;;;9.23
70668;BMP280;58242;51.250;-1.118;2022-12-18T09:37:45;100372.31;;;9.19
70668;BMP280;58242;51.250;-1.118;2022-12-18T09:40:16;100369.16;;;9.17
70668;BMP280;58242;51.250;-1.118;2022-12-18T09:42:46;100375.13;;;9.14
70668;BMP280;58242;51.250;-1.118;2022-12-18T09:45:14;100381.06;;;9.11
70668;BMP280;58242;51.250;-1.118;2022-12-18T09:47:42;100373.69;;;9.08
70668;BMP280;58242;51.250;-1.118;2022-12-18T09:52:51;100372.22;;;9.02
70668;BMP280;58242;51.250;-1.118;2022-12-18T09:55:40;100356.34;;;8.97
70668;BMP280;58242;51.250;-1.118;2022-12-18T10:00:35;100353.22;;;8.95
70668;BMP280;58242;51.250;-1.118;2022-12-18T10:03:08;100364.69;;;8.96
70668;BMP280;58242;51.250;-1.118;2022-12-18T10:05:40;100363.38;;;8.93
70668;BMP280;58242;51.250;-1.118;2022-12-18T10:10:52;100352.25;;;8.91
70668;BMP280;58242;51.250;-1.118;2022-12-18T10:21:11;100310.06;;;8.93
70668;BMP280;58242;51.250;-1.118;2022-12-18T10:26:12;100309.78;;;8.95
70668;BMP280;58242;51.250;-1.118;2022-12-18T10:28:39;100303.81;;;8.98
70668;BMP280;58242;51.250;-1.118;2022-12-18T10:31:07;100310.72;;;8.99
70668;BMP280;58242;51.250;-1.118;2022-12-18T10:33:33;100304.31;;;9.00
70668;BMP280;58242;51.250;-1.118;2022-12-18T10:35:59;100306.19;;;8.99
70668;BMP280;58242;51.250;-1.118;2022-12-18T10:38:30;100324.84;;;8.99
70668;BMP280;58242;51.250;-1.118;2022-12-18T10:40:58;100314.19;;;8.99
70668;BMP280;58242;51.250;-1.118;2022-12-18T10:43:34;100316.84;;;8.99
70668;BMP280;58242;51.250;-1.118;2022-12-18T10:53:59;100300.06;;;8.99
70668;BMP280;58242;51.250;-1.118;2022-12-18T10:56:27;100301.31;;;9.01
70668;BMP280;58242;51.250;-1.118;2022-12-18T10:59:04;100295.69;;;9.03
70668;BMP280;58242;51.250;-1.118;2022-12-18T11:01:58;100282.81;;;9.05
70668;BMP280;58242;51.250;-1.118;2022-12-18T11:09:31;100257.56;;;9.02
70668;BMP280;58242;51.250;-1.118;2022-12-18T11:12:01;100259.16;;;9.03
70668;BMP280;58242;51.250;-1.118;2022-12-18T11:14:31;100250.06;;;9.04
70668;BMP280;58242;51.250;-1.118;2022-12-18T11:16:58;100243.31;;;9.06
70668;BMP280;58242;51.250;-1.118;2022-12-18T11:19:34;100241.91;;;9.09
70668;BMP280;58242;51.250;-1.118;2022-12-18T11:22:01;100234.06;;;9.12
70668;BMP280;58242;51.250;-1.118;2022-12-18T11:24:31;100226.88;;;9.13
70668;BMP280;58242;51.250;-1.118;2022-12-18T11:27:04;100217.78;;;9.14
70668;BMP280;58242;51.250;-1.118;2022-12-18T11:29:34;100218.25;;;9.16
70668;BMP280;58242;51.250;-1.118;2022-12-18T11:32:24;100211.66;;;9.13
70668;BMP280;58242;51.250;-1.118;2022-12-18T11:34:58;100203.66;;;9.13
70668;BMP280;58242;51.250;-1.118;2022-12-18T11:37:24;100201.31;;;9.12
70668;BMP280;58242;51.250;-1.118;2022-12-18T11:39:58;100195.19;;;9.11
70668;BMP280;58242;51.250;-1.118;2022-12-18T11:42:37;100187.50;;;9.10
70668;BMP280;58242;51.250;-1.118;2022-12-18T11:45:20;100182.28;;;9.05
70668;BMP280;58242;51.250;-1.118;2022-12-18T11:53:02;100156.25;;;9.02
70668;BMP280;58242;51.250;-1.118;2022-12-18T11:55:51;100153.59;;;9.02
70668;BMP280;58242;51.250;-1.118;2022-12-18T12:09:47;100128.19;;;8.96
70668;BMP280;58242;51.250;-1.118;2022-12-18T12:17:59;100087.56;;;8.99
70668;BMP280;58242;51.250;-1.118;2022-12-18T12:20:56;100085.34;;;9.01
70668;BMP280;58242;51.250;-1.118;2022-12-18T12:23:33;100074.84;;;9.05
70668;BMP280;58242;51.250;-1.118;2022-12-18T12:26:10;100078.00;;;9.06
70668;BMP280;58242;51.250;-1.118;2022-12-18T12:28:43;100066.53;;;9.06
70668;BMP280;58242;51.250;-1.118;2022-12-18T12:33:54;100062.78;;;9.07
70668;BMP280;58242;51.250;-1.118;2022-12-18T12:38:56;100054.47;;;9.08
70668;BMP280;58242;51.250;-1.118;2022-12-18T12:41:24;100032.81;;;9.10
70668;BMP280;58242;51.250;-1.118;2022-12-18T12:44:16;100023.75;;;9.11
70668;BMP280;58242;51.250;-1.118;2022-12-18T12:46:44;100020.75;;;9.12
70668;BMP280;58242;51.250;-1.118;2022-12-18T12:49:19;100011.66;;;9.13
70668;BMP280;58242;51.250;-1.118;2022-12-18T12:52:11;100008.97;;;9.13
70668;BMP280;58242;51.250;-1.118;2022-12-18T12:54:38;99998.00;;;9.15
70668;BMP280;58242;51.250;-1.118;2022-12-18T12:57:12;99993.91;;;9.17
70668;BMP280;58242;51.250;-1.118;2022-12-18T13:00:15;99993.91;;;9.17
70668;BMP280;58242;51.250;-1.118;2022-12-18T13:03:27;99987.16;;;9.20
70668;BMP280;58242;51.250;-1.118;2022-12-18T13:05:59;99990.75;;;9.23
70668;BMP280;58242;51.250;-1.118;2022-12-18T13:08:27;99989.50;;;9.29
70668;BMP280;58242;51.250;-1.118;2022-12-18T13:10:57;99981.03;;;9.36
70668;BMP280;58242;51.250;-1.118;2022-12-18T13:13:55;99978.84;;;9.38
70668;BMP280;58242;51.250;-1.118;2022-12-18T13:16:25;99977.88;;;9.42
70668;BMP280;58242;51.250;-1.118;2022-12-18T13:18:56;99967.38;;;9.45
70668;BMP280;58242;51.250;-1.118;2022-12-18T13:21:31;99967.16;;;9.50
70668;BMP280;58242;51.250;-1.118;2022-12-18T13:24:24;99966.22;;;9.55
70668;BMP280;58242;51.250;-1.118;2022-12-18T13:26:50;99958.84;;;9.60
70668;BMP280;58242;51.250;-1.118;2022-12-18T13:29:42;99957.88;;;9.64
70668;BMP280;58242;51.250;-1.118;2022-12-18T13:32:24;99957.69;;;9.69
70668;BMP280;58242;51.250;-1.118;2022-12-18T13:37:45;99945.44;;;9.76
70668;BMP280;58242;51.250;-1.118;2022-12-18T13:46:06;99932.03;;;9.93
70668;BMP280;58242;51.250;-1.118;2022-12-18T13:48:37;99936.06;;;9.99
70668;BMP280;58242;51.250;-1.118;2022-12-18T13:51:06;99926.00;;;10.04
70668;BMP280;58242;51.250;-1.118;2022-12-18T13:53:43;99923.00;;;10.06
70668;BMP280;58242;51.250;-1.118;2022-12-18T13:56:15;99923.59;;;10.11
70668;BMP280;58242;51.250;-1.118;2022-12-18T13:58:40;99908.03;;;10.13
70668;BMP280;58242;51.250;-1.118;2022-12-18T14:01:21;99908.63;;;10.18
70668;BMP280;58242;51.250;-1.118;2022-12-18T14:03:46;99896.19;;;10.22
70668;BMP280;58242;51.250;-1.118;2022-12-18T14:06:12;99897.88;;;10.26
70668;BMP280;58242;51.250;-1.118;2022-12-18T14:08:40;99904.94;;;10.31
70668;BMP280;58242;51.250;-1.118;2022-12-18T14:11:07;99903.97;;;10.35
70668;BMP280;58242;51.250;-1.118;2022-12-18T14:13:43;99877.50;;;10.42
70668;BMP280;58242;51.250;-1.118;2022-12-18T14:16:14;99880.78;;;10.47
70668;BMP280;58242;51.250;-1.118;2022-12-18T14:18:56;99872.88;;;10.51
70668;BMP280;58242;51.250;-1.118;2022-12-18T14:21:26;99876.91;;;10.57
70668;BMP280;58242;51.250;-1.118;2022-12-18T14:24:16;99864.00;;;10.59
70668;BMP280;58242;51.250;-1.118;2022-12-18T14:26:42;99861.56;;;10.65
70668;BMP280;58242;51.250;-1.118;2022-12-18T14:29:34;99849.13;;;10.69
70668;BMP280;58242;51.250;-1.118;2022-12-18T14:32:06;99857.38;;;10.76
70668;BMP280;58242;51.250;-1.118;2022-12-18T14:34:32;99849.16;;;10.81
70668;BMP280;58242;51.250;-1.118;2022-12-18T14:36:57;99841.25;;;10.84
70668;BMP280;58242;51.250;-1.118;2022-12-18T14:39:22;99842.28;;;10.92
70668;BMP280;58242;51.250;-1.118;2022-12-18T14:41:50;99828.38;;;10.98
70668;BMP280;58242;51.250;-1.118;2022-12-18T14:44:15;99844.22;;;11.03
70668;BMP280;58242;51.250;-1.118;2022-12-18T14:46:44;99830.63;;;11.08
70668;BMP280;58242;51.250;-1.118;2022-12-18T14:49:42;99829.19;;;11.10
70668;BMP280;58242;51.250;-1.118;2022-12-18T14:52:34;99814.34;;;11.12
70668;BMP280;58242;51.250;-1.118;2022-12-18T14:54:59;99807.22;;;11.16
70668;BMP280;58242;51.250;-1.118;2022-12-18T14:57:28;99815.03;;;11.21
70668;BMP280;58242;51.250;-1.118;2022-12-18T15:00:07;99797.53;;;11.24
70668;BMP280;58242;51.250;-1.118;2022-12-18T15:02:36;99803.03;;;11.27
70668;BMP280;58242;51.250;-1.118;2022-12-18T15:05:14;99792.78;;;11.29
70668;BMP280;58242;51.250;-1.118;2022-12-18T15:07:48;99788.66;;;11.31
70668;BMP280;58242;51.250;-1.118;2022-12-18T15:10:32;99789.44;;;11.32
70668;BMP280;58242;51.250;-1.118;2022-12-18T15:18:13;99776.06;;;11.44
70668;BMP280;58242;51.250;-1.118;2022-12-18T15:20:44;99788.88;;;11.50
70668;BMP280;58242;51.250;-1.118;2022-12-18T15:23:21;99791.66;;;11.53
70668;BMP280;58242;51.250;-1.118;2022-12-18T15:25:58;99783.41;;;11.58
70668;BMP280;58242;51.250;-1.118;2022-12-18T15:28:27;99787.75;;;11.63
70668;BMP280;58242;51.250;-1.118;2022-12-18T15:34:01;99784.59;;;11.72
70668;BMP280;58242;51.250;-1.118;2022-12-18T15:36:28;99778.59;;;11.75
70668;BMP280;58242;51.250;-1.118;2022-12-18T15:38:55;99767.63;;;11.80
70668;BMP280;58242;51.250;-1.118;2022-12-18T15:41:22;99774.66;;;11.84
70668;BMP280;58242;51.250;-1.118;2022-12-18T15:43:49;99766.72;;;11.88
70668;BMP280;58242;51.250;-1.118;2022-12-18T15:46:18;99759.56;;;11.92
70668;BMP280;58242;51.250;-1.118;2022-12-18T15:48:47;99764.28;;;11.95